sensor_id;sensor_type;location;lat;lon;timestamp;temperature;humidity
11848;DHT22;5983;49.966;8.052;2023-10-08T00:01:02;15.90;99.90
11848;DHT22;5983;49.966;8.052;2023-10-08T00:03:31;15.90;99.90
11848;DHT22;5983;49.966;8.052;2023-10-08T00:06:02;15.90;99.90
11848;DHT22;5983;49.966;8.052;2023-10-08T00:08:32;15.90;99.90
11848;DHT22;5983;49.966;8.052;2023-10-08T00:10:59;15.90;99.90
11848;DHT22;5983;49.966;8.052;2023-10-08T00:13:32;15.90;99.90
11848;DHT22;5983;49.966;8.052;2023-10-08T00:16:05;15.90;99.90
11848;DHT22;5983;49.966;8.052;2023-10-08T00:18:34;15.90;99.90
11848;DHT22;5983;49.966;8.052;2023-10-08T00:21:03;15.90;99.90
11848;DHT22;5983;49.966;8.052;2023-10-08T00:23:42;15.90;99.90
11848;DHT22;5983;49.966;8.052;2023-10-08T00:26:17;15.90;99.90
11848;DHT22;5983;49.966;8.052;2023-10-08T00:28:53;15.90;99.90
11848;DHT22;5983;49.966;8.052;2023-10-08T00:31:22;15.90;99.90
11848;DHT22;5983;49.966;8.052;2023-10-08T00:33:52;15.90;99.90
11848;DHT22;5983;49.966;8.052;2023-10-08T00:36:21;16.00;99.90
11848;DHT22;5983;49.966;8.052;2023-10-08T00:38:49;16.00;99.90
11848;DHT22;5983;49.966;8.052;2023-10-08T00:41:18;16.10;99.90
11848;DHT22;5983;49.966;8.052;2023-10-08T00:43:47;16.10;99.90
11848;DHT22;5983;49.966;8.052;2023-10-08T00:46:15;16.20;99.90
11848;DHT22;5983;49.966;8.052;2023-10-08T00:48:44;16.20;99.90
11848;DHT22;5983;49.966;8.052;2023-10-08T00:51:12;16.30;99.90
11848;DHT22;5983;49.966;8.052;2023-10-08T00:53:54;16.40;99.90
11848;DHT22;5983;49.966;8.052;2023-10-08T00:56:25;16.40;99.90
11848;DHT22;5983;49.966;8.052;2023-10-08T00:59:11;16.40;99.90
11848;DHT22;5983;49.966;8.052;2023-10-08T01:01:40;16.40;99.90
11848;DHT22;5983;49.966;8.052;2023-10-08T01:04:14;16.40;99.90
11848;DHT22;5983;49.966;8.052;2023-10-08T01:06:42;16.40;99.90
11848;DHT22;5983;49.966;8.052;2023-10-08T01:09:10;16.40;99.90
11848;DHT22;5983;49.966;8.052;2023-10-08T01:11:43;16.30;99.90
11848;DHT22;5983;49.966;8.052;2023-10-08T01:14:15;16.30;99.90
11848;DHT22;5983;49.966;8.052;2023-10-08T01:16:44;16.30;99.90
11848;DHT22;5983;49.966;8.052;2023-10-08T01:19:17;16.20;99.90
11848;DHT22;5983;49.966;8.052;2023-10-08T01:21:46;16.20;99.90
11848;DHT22;5983;49.966;8.052;2023-10-08T01:24:14;16.20;99.90
11848;DHT22;5983;49.966;8.052;2023-10-08T01:26:43;16.20;99.90
11848;DHT22;5983;49.966;8.052;2023-10-08T01:29:11;16.20;99.90
11848;DHT22;5983;49.966;8.052;2023-10-08T01:31:45;16.30;99.90
11848;DHT22;5983;49.966;8.052;2023-10-08T01:34:13;16.30;99.90
11848;DHT22;5983;49.966;8.052;2023-10-08T01:36:41;16.30;99.90
11848;DHT22;5983;49.966;8.052;2023-10-08T01:39:09;16.20;99.90
11848;DHT22;5983;49.966;8.052;2023-10-08T01:41:43;16.20;99.90
11848;DHT22;5983;49.966;8.052;2023-10-08T01:44:10;16.20;99.90
11848;DHT22;5983;49.966;8.052;2023-10-08T01:46:37;16.20;99.90
11848;DHT22;5983;49.966;8.052;2023-10-08T01:49:06;16.10;99.90
11848;DHT22;5983;49.966;8.052;2023-10-08T01:51:39;16.10;99.90
11848;DHT22;5983;49.966;8.052;2023-10-08T01:54:12;16.00;99.90
11848;DHT22;5983;49.966;8.052;2023-10-08T01:56:40;16.00;99.90
11848;DHT22;5983;49.966;8.052;2023-10-08T01:59:09;15.90;99.90
11848;DHT22;5983;49.966;8.052;2023-10-08T02:01:37;15.90;99.90
11848;DHT22;5983;49.966;8.052;2023-10-08T02:04:05;15.90;99.90
11848;DHT22;5983;49.966;8.052;2023-10-08T02:06:33;15.90;99.90
11848;DHT22;5983;49.966;8.052;2023-10-08T02:09:00;15.90;99.90
11848;DHT22;5983;49.966;8.052;2023-10-08T02:11:41;15.80;99.90
11848;DHT22;5983;49.966;8.052;2023-10-08T02:14:10;15.70;99.90
11848;DHT22;5983;49.966;8.052;2023-10-08T02:16:40;15.60;99.90
11848;DHT22;5983;49.966;8.052;2023-10-08T02:19:07;15.60;99.90
11848;DHT22;5983;49.966;8.052;2023-10-08T02:21:36;15.50;99.90
11848;DHT22;5983;49.966;8.052;2023-10-08T02:24:03;15.50;99.90
11848;DHT22;5983;49.966;8.052;2023-10-08T02:26:32;15.50;99.90
11848;DHT22;5983;49.966;8.052;2023-10-08T02:28:59;15.50;99.90
11848;DHT22;5983;49.966;8.052;2023-10-08T02:31:27;15.50;99.90
11848;DHT22;5983;49.966;8.052;2023-10-08T02:33:54;15.60;99.90
11848;DHT22;5983;49.966;8.052;2023-10-08T02:36:24;15.60;99.90
11848;DHT22;5983;49.966;8.052;2023-10-08T02:38:51;15.70;99.90
11848;DHT22;5983;49.966;8.052;2023-10-08T02:41:17;15.70;99.90
11848;DHT22;5983;49.966;8.052;2023-10-08T02:43:44;15.70;99.90
11848;DHT22;5983;49.966;8.052;2023-10-08T02:46:13;15.80;99.90
11848;DHT22;5983;49.966;8.052;2023-10-08T02:48:42;15.80;99.90
11848;DHT22;5983;49.966;8.052;2023-10-08T02:51:08;15.80;99.90
11848;DHT22;5983;49.966;8.052;2023-10-08T02:53:39;15.80;99.90
11848;DHT22;5983;49.966;8.052;2023-10-08T02:56:09;15.80;99.90
11848;DHT22;5983;49.966;8.052;2023-10-08T02:58:39;15.80;99.90
11848;DHT22;5983;49.966;8.052;2023-10-08T03:01:06;15.80;99.90
11848;DHT22;5983;49.966;8.052;2023-10-08T03:03:38;15.80;99.90
11848;DHT22;5983;49.966;8.052;2023-10-08T03:06:07;15.90;99.90
11848;DHT22;5983;49.966;8.052;2023-10-08T03:08:37;15.90;99.90
11848;DHT22;5983;49.966;8.052;2023-10-08T03:11:08;16.00;99.90
11848;DHT22;5983;49.966;8.052;2023-10-08T03:13:42;16.00;99.90
11848;DHT22;5983;49.966;8.052;2023-10-08T03:16:12;16.00;99.90
11848;DHT22;5983;49.966;8.052;2023-10-08T03:18:39;16.00;99.90
11848;DHT22;5983;49.966;8.052;2023-10-08T03:21:09;16.00;99.90
11848;DHT22;5983;49.966;8.052;2023-10-08T03:23:46;16.00;99.90
11848;DHT22;5983;49.966;8.052;2023-10-08T03:26:15;16.00;99.90
11848;DHT22;5983;49.966;8.052;2023-10-08T03:29:02;16.00;99.90
11848;DHT22;5983;49.966;8.052;2023-10-08T03:31:33;16.00;99.90
11848;DHT22;5983;49.966;8.052;2023-10-08T03:34:15;16.00;99.90
11848;DHT22;5983;49.966;8.052;2023-10-08T03:36:45;16.00;99.90
11848;DHT22;5983;49.966;8.052;2023-10-08T03:39:14;15.90;99.90
11848;DHT22;5983;49.966;8.052;2023-10-08T03:41:44;15.90;99.90
11848;DHT22;5983;49.966;8.052;2023-10-08T03:44:23;15.80;99.90
11848;DHT22;5983;49.966;8.052;2023-10-08T03:46:50;15.80;99.90
11848;DHT22;5983;49.966;8.052;2023-10-08T03:49:18;15.70;99.90
11848;DHT22;5983;49.966;8.052;2023-10-08T03:51:53;15.60;99.90
11848;DHT22;5983;49.966;8.052;2023-10-08T03:54:22;15.60;99.90
11848;DHT22;5983;49.966;8.052;2023-10-08T03:56:55;15.50;99.90
11848;DHT22;5983;49.966;8.052;2023-10-08T03:59:23;15.50;99.90
11848;DHT22;5983;49.966;8.052;2023-10-08T04:01:56;15.50;99.90
11848;DHT22;5983;49.966;8.052;2023-10-08T04:04:34;15.40;99.90
11848;DHT22;5983;49.966;8.052;2023-10-08T04:07:16;15.40;99.90
11848;DHT22;5983;49.966;8.052;2023-10-08T04:10:05;15.40;99.90
11848;DHT22;5983;49.966;8.052;2023-10-08T04:13:00;15.40;99.90
11848;DHT22;5983;49.966;8.052;2023-10-08T04:15:26;15.40;99.90
11848;DHT22;5983;49.966;8.052;2023-10-08T04:17:53;15.40;99.90
11848;DHT22;5983;49.966;8.052;2023-10-08T04:20:22;15.40;99.90
11848;DHT22;5983;49.966;8.052;2023-10-08T04:23:03;15.40;99.90
11848;DHT22;5983;49.966;8.052;2023-10-08T04:25:31;15.30;99.90
11848;DHT22;5983;49.966;8.052;2023-10-08T04:27:59;15.30;99.90
11848;DHT22;5983;49.966;8.052;2023-10-08T04:30:27;15.20;99.90
11848;DHT22;5983;49.966;8.052;2023-10-08T04:32:59;15.20;99.90
11848;DHT22;5983;49.966;8.052;2023-10-08T04:35:32;15.10;99.90
11848;DHT22;5983;49.966;8.052;2023-10-08T04:38:04;15.10;99.90
11848;DHT22;5983;49.966;8.052;2023-10-08T04:40:34;15.10;99.90
11848;DHT22;5983;49.966;8.052;2023-10-08T04:43:07;15.10;99.90
11848;DHT22;5983;49.966;8.052;2023-10-08T04:45:36;15.10;99.90
11848;DHT22;5983;49.966;8.052;2023-10-08T04:48:03;15.10;99.90
11848;DHT22;5983;49.966;8.052;2023-10-08T04:50:34;15.10;99.90
11848;DHT22;5983;49.966;8.052;2023-10-08T04:53:04;15.10;99.90
11848;DHT22;5983;49.966;8.052;2023-10-08T04:55:33;15.10;99.90
11848;DHT22;5983;49.966;8.052;2023-10-08T04:58:00;15.10;99.90
11848;DHT22;5983;49.966;8.052;2023-10-08T05:00:31;15.10;99.90
11848;DHT22;5983;49.966;8.052;2023-10-08T05:03:08;15.10;99.90
11848;DHT22;5983;49.966;8.052;2023-10-08T05:05:40;15.10;99.90
11848;DHT22;5983;49.966;8.052;2023-10-08T05:08:29;15.10;99.90
11848;DHT22;5983;49.966;8.052;2023-10-08T05:11:12;15.10;99.90
11848;DHT22;5983;49.966;8.052;2023-10-08T05:13:49;15.10;99.90
11848;DHT22;5983;49.966;8.052;2023-10-08T05:16:27;15.00;99.90
11848;DHT22;5983;49.966;8.052;2023-10-08T05:19:02;15.00;99.90
11848;DHT22;5983;49.966;8.052;2023-10-08T05:21:47;15.00;99.90
11848;DHT22;5983;49.966;8.052;2023-10-08T05:24:29;15.00;99.90
11848;DHT22;5983;49.966;8.052;2023-10-08T05:27:04;15.00;99.90
11848;DHT22;5983;49.966;8.052;2023-10-08T05:29:49;15.00;99.90
11848;DHT22;5983;49.966;8.052;2023-10-08T05:32:36;15.00;99.90
11848;DHT22;5983;49.966;8.052;2023-10-08T05:35:04;15.00;99.90
11848;DHT22;5983;49.966;8.052;2023-10-08T05:37:49;15.00;99.90
11848;DHT22;5983;49.966;8.052;2023-10-08T05:40:29;15.00;99.90
11848;DHT22;5983;49.966;8.052;2023-10-08T05:43:10;15.00;99.90
11848;DHT22;5983;49.966;8.052;2023-10-08T05:45:58;15.00;99.90
11848;DHT22;5983;49.966;8.052;2023-10-08T05:48:45;15.00;99.90
11848;DHT22;5983;49.966;8.052;2023-10-08T05:51:27;14.90;99.90
11848;DHT22;5983;49.966;8.052;2023-10-08T05:54:11;14.90;99.90
11848;DHT22;5983;49.966;8.052;2023-10-08T05:56:52;14.90;99.90
11848;DHT22;5983;49.966;8.052;2023-10-08T05:59:32;15.00;99.90
11848;DHT22;5983;49.966;8.052;2023-10-08T06:02:05;15.00;99.90
11848;DHT22;5983;49.966;8.052;2023-10-08T06:04:52;15.10;99.90
11848;DHT22;5983;49.966;8.052;2023-10-08T06:07:35;15.10;99.90
11848;DHT22;5983;49.966;8.052;2023-10-08T06:10:13;15.10;99.90
11848;DHT22;5983;49.966;8.052;2023-10-08T06:13:06;15.20;99.90
11848;DHT22;5983;49.966;8.052;2023-10-08T06:15:35;15.10;99.90
11848;DHT22;5983;49.966;8.052;2023-10-08T06:18:10;15.20;99.90
11848;DHT22;5983;49.966;8.052;2023-10-08T06:20:36;15.10;99.90
11848;DHT22;5983;49.966;8.052;2023-10-08T06:23:07;15.10;99.90
11848;DHT22;5983;49.966;8.052;2023-10-08T06:25:34;15.10;99.90
11848;DHT22;5983;49.966;8.052;2023-10-08T06:28:12;15.20;99.90
11848;DHT22;5983;49.966;8.052;2023-10-08T06:30:40;15.20;99.90
11848;DHT22;5983;49.966;8.052;2023-10-08T06:33:07;15.20;99.90
11848;DHT22;5983;49.966;8.052;2023-10-08T06:35:34;15.30;99.90
11848;DHT22;5983;49.966;8.052;2023-10-08T06:38:01;15.50;99.90
11848;DHT22;5983;49.966;8.052;2023-10-08T06:40:33;15.70;99.90
11848;DHT22;5983;49.966;8.052;2023-10-08T06:43:07;15.90;99.90
11848;DHT22;5983;49.966;8.052;2023-10-08T06:45:51;16.10;99.90
11848;DHT22;5983;49.966;8.052;2023-10-08T06:48:23;16.70;99.90
11848;DHT22;5983;49.966;8.052;2023-10-08T06:50:51;17.40;99.90
11848;DHT22;5983;49.966;8.052;2023-10-08T06:53:22;18.00;99.90
11848;DHT22;5983;49.966;8.052;2023-10-08T06:55:49;18.20;99.90
11848;DHT22;5983;49.966;8.052;2023-10-08T06:58:22;18.10;99.90
11848;DHT22;5983;49.966;8.052;2023-10-08T07:00:51;18.00;99.90
11848;DHT22;5983;49.966;8.052;2023-10-08T07:03:20;17.80;99.90
11848;DHT22;5983;49.966;8.052;2023-10-08T07:05:48;17.60;99.90
11848;DHT22;5983;49.966;8.052;2023-10-08T07:08:25;17.50;99.90
11848;DHT22;5983;49.966;8.052;2023-10-08T07:10:54;17.40;99.90
11848;DHT22;5983;49.966;8.052;2023-10-08T07:13:22;17.40;99.90
11848;DHT22;5983;49.966;8.052;2023-10-08T07:15:51;17.30;99.90
11848;DHT22;5983;49.966;8.052;2023-10-08T07:18:18;17.30;99.90
11848;DHT22;5983;49.966;8.052;2023-10-08T07:20:50;17.30;99.90
11848;DHT22;5983;49.966;8.052;2023-10-08T07:23:19;17.30;99.90
11848;DHT22;5983;49.966;8.052;2023-10-08T07:25:53;17.30;99.90
11848;DHT22;5983;49.966;8.052;2023-10-08T07:28:26;17.30;99.90
11848;DHT22;5983;49.966;8.052;2023-10-08T07:30:56;17.30;99.90
11848;DHT22;5983;49.966;8.052;2023-10-08T07:33:23;17.30;99.90
11848;DHT22;5983;49.966;8.052;2023-10-08T07:35:54;17.20;99.90
11848;DHT22;5983;49.966;8.052;2023-10-08T07:38:28;17.20;99.90
11848;DHT22;5983;49.966;8.052;2023-10-08T07:40:55;17.20;99.90
11848;DHT22;5983;49.966;8.052;2023-10-08T07:43:22;17.10;99.90
11848;DHT22;5983;49.966;8.052;2023-10-08T07:45:49;17.10;99.90
11848;DHT22;5983;49.966;8.052;2023-10-08T07:48:21;17.10;99.90
11848;DHT22;5983;49.966;8.052;2023-10-08T07:50:55;17.20;99.90
11848;DHT22;5983;49.966;8.052;2023-10-08T07:53:22;17.20;99.90
11848;DHT22;5983;49.966;8.052;2023-10-08T07:55:49;17.20;99.90
11848;DHT22;5983;49.966;8.052;2023-10-08T07:58:17;17.20;99.90
11848;DHT22;5983;49.966;8.052;2023-10-08T08:00:45;17.20;99.90
11848;DHT22;5983;49.966;8.052;2023-10-08T08:03:18;17.20;99.90
11848;DHT22;5983;49.966;8.052;2023-10-08T08:05:47;17.20;99.90
11848;DHT22;5983;49.966;8.052;2023-10-08T08:08:19;17.20;99.90
11848;DHT22;5983;49.966;8.052;2023-10-08T08:10:52;17.20;99.90
11848;DHT22;5983;49.966;8.052;2023-10-08T08:13:25;17.20;99.90
11848;DHT22;5983;49.966;8.052;2023-10-08T08:15:54;17.30;99.90
11848;DHT22;5983;49.966;8.052;2023-10-08T08:18:24;17.30;99.90
11848;DHT22;5983;49.966;8.052;2023-10-08T08:21:02;17.40;99.90
11848;DHT22;5983;49.966;8.052;2023-10-08T08:23:30;17.40;99.90
11848;DHT22;5983;49.966;8.052;2023-10-08T08:25:58;17.50;99.90
11848;DHT22;5983;49.966;8.052;2023-10-08T08:28:37;17.60;99.90
11848;DHT22;5983;49.966;8.052;2023-10-08T08:31:05;17.70;99.90
11848;DHT22;5983;49.966;8.052;2023-10-08T08:33:39;17.70;99.90
11848;DHT22;5983;49.966;8.052;2023-10-08T08:36:20;17.70;99.90
11848;DHT22;5983;49.966;8.052;2023-10-08T08:38:48;17.70;99.90
11848;DHT22;5983;49.966;8.052;2023-10-08T08:41:14;17.70;99.90
11848;DHT22;5983;49.966;8.052;2023-10-08T08:43:43;17.70;99.90
11848;DHT22;5983;49.966;8.052;2023-10-08T08:46:13;17.70;99.90
11848;DHT22;5983;49.966;8.052;2023-10-08T08:48:41;17.80;99.90
11848;DHT22;5983;49.966;8.052;2023-10-08T08:51:09;17.80;99.90
11848;DHT22;5983;49.966;8.052;2023-10-08T08:53:39;17.80;99.90
11848;DHT22;5983;49.966;8.052;2023-10-08T08:56:08;17.80;99.90
11848;DHT22;5983;49.966;8.052;2023-10-08T08:58:36;17.90;99.90
11848;DHT22;5983;49.966;8.052;2023-10-08T09:01:05;17.90;99.90
11848;DHT22;5983;49.966;8.052;2023-10-08T09:03:35;17.90;99.90
11848;DHT22;5983;49.966;8.052;2023-10-08T09:06:02;17.90;99.90
11848;DHT22;5983;49.966;8.052;2023-10-08T09:08:32;17.90;99.90
11848;DHT22;5983;49.966;8.052;2023-10-08T09:11:01;17.90;99.90
11848;DHT22;5983;49.966;8.052;2023-10-08T09:13:30;17.90;99.90
11848;DHT22;5983;49.966;8.052;2023-10-08T09:16:01;18.00;99.90
11848;DHT22;5983;49.966;8.052;2023-10-08T09:18:30;18.00;99.90
11848;DHT22;5983;49.966;8.052;2023-10-08T09:21:07;18.00;99.90
11848;DHT22;5983;49.966;8.052;2023-10-08T09:23:38;18.10;99.90
11848;DHT22;5983;49.966;8.052;2023-10-08T09:26:10;18.30;99.90
11848;DHT22;5983;49.966;8.052;2023-10-08T09:28:39;18.50;99.90
11848;DHT22;5983;49.966;8.052;2023-10-08T09:31:09;18.70;99.90
11848;DHT22;5983;49.966;8.052;2023-10-08T09:33:37;19.00;99.90
11848;DHT22;5983;49.966;8.052;2023-10-08T09:36:05;19.20;99.90
11848;DHT22;5983;49.966;8.052;2023-10-08T09:38:36;19.40;99.90
11848;DHT22;5983;49.966;8.052;2023-10-08T09:41:03;19.60;99.90
11848;DHT22;5983;49.966;8.052;2023-10-08T09:43:35;20.00;99.90
11848;DHT22;5983;49.966;8.052;2023-10-08T09:46:07;20.70;99.90
11848;DHT22;5983;49.966;8.052;2023-10-08T09:48:40;21.90;99.90
11848;DHT22;5983;49.966;8.052;2023-10-08T09:51:10;23.10;99.90
11848;DHT22;5983;49.966;8.052;2023-10-08T09:53:41;23.80;99.90
11848;DHT22;5983;49.966;8.052;2023-10-08T09:56:14;24.20;99.90
11848;DHT22;5983;49.966;8.052;2023-10-08T09:58:44;24.40;99.90
11848;DHT22;5983;49.966;8.052;2023-10-08T10:01:14;24.50;99.90
11848;DHT22;5983;49.966;8.052;2023-10-08T10:03:42;24.40;99.90
11848;DHT22;5983;49.966;8.052;2023-10-08T10:06:13;24.20;99.90
11848;DHT22;5983;49.966;8.052;2023-10-08T10:08:41;23.90;99.90
11848;DHT22;5983;49.966;8.052;2023-10-08T10:11:08;23.70;99.90
11848;DHT22;5983;49.966;8.052;2023-10-08T10:13:39;23.70;99.90
11848;DHT22;5983;49.966;8.052;2023-10-08T10:16:11;23.70;99.90
11848;DHT22;5983;49.966;8.052;2023-10-08T10:18:38;23.80;99.90
11848;DHT22;5983;49.966;8.052;2023-10-08T10:23:52;23.90;99.90
11848;DHT22;5983;49.966;8.052;2023-10-08T10:26:24;24.00;99.90
11848;DHT22;5983;49.966;8.052;2023-10-08T10:31:52;24.00;99.90
11848;DHT22;5983;49.966;8.052;2023-10-08T10:34:22;24.20;99.90
11848;DHT22;5983;49.966;8.052;2023-10-08T10:36:52;24.40;99.90
11848;DHT22;5983;49.966;8.052;2023-10-08T10:39:24;24.80;99.90
11848;DHT22;5983;49.966;8.052;2023-10-08T10:41:56;25.30;99.90
11848;DHT22;5983;49.966;8.052;2023-10-08T10:44:26;25.80;99.90
11848;DHT22;5983;49.966;8.052;2023-10-08T10:46:56;26.30;99.90
11848;DHT22;5983;49.966;8.052;2023-10-08T10:49:41;27.20;99.90
11848;DHT22;5983;49.966;8.052;2023-10-08T10:52:19;28.70;99.90
11848;DHT22;5983;49.966;8.052;2023-10-08T10:55:00;30.50;99.90
11848;DHT22;5983;49.966;8.052;2023-10-08T10:57:44;32.10;94.10
11848;DHT22;5983;49.966;8.052;2023-10-08T11:00:20;33.70;84.80
11848;DHT22;5983;49.966;8.052;2023-10-08T11:03:03;35.10;73.90
11848;DHT22;5983;49.966;8.052;2023-10-08T11:05:41;36.40;65.10
11848;DHT22;5983;49.966;8.052;2023-10-08T11:08:13;37.30;56.90
11848;DHT22;5983;49.966;8.052;2023-10-08T11:10:43;37.70;54.10
11848;DHT22;5983;49.966;8.052;2023-10-08T11:13:14;37.90;52.60
11848;DHT22;5983;49.966;8.052;2023-10-08T11:15:41;38.30;50.10
11848;DHT22;5983;49.966;8.052;2023-10-08T11:18:15;38.70;48.50
11848;DHT22;5983;49.966;8.052;2023-10-08T11:20:43;39.40;47.20
11848;DHT22;5983;49.966;8.052;2023-10-08T11:23:10;40.30;45.50
11848;DHT22;5983;49.966;8.052;2023-10-08T11:25:54;41.20;43.30
11848;DHT22;5983;49.966;8.052;2023-10-08T11:28:25;42.20;41.10
11848;DHT22;5983;49.966;8.052;2023-10-08T11:30:54;42.80;38.70
11848;DHT22;5983;49.966;8.052;2023-10-08T11:33:25;42.60;38.40
11848;DHT22;5983;49.966;8.052;2023-10-08T11:35:55;42.50;38.20
11848;DHT22;5983;49.966;8.052;2023-10-08T11:38:24;42.50;38.10
11848;DHT22;5983;49.966;8.052;2023-10-08T11:40:53;42.10;37.70
11848;DHT22;5983;49.966;8.052;2023-10-08T11:43:23;41.60;38.40
11848;DHT22;5983;49.966;8.052;2023-10-08T11:45:50;41.40;38.80
11848;DHT22;5983;49.966;8.052;2023-10-08T11:48:18;41.00;38.70
11848;DHT22;5983;49.966;8.052;2023-10-08T11:50:55;40.20;38.30
11848;DHT22;5983;49.966;8.052;2023-10-08T11:53:22;39.10;39.80
11848;DHT22;5983;49.966;8.052;2023-10-08T11:55:50;37.60;41.70
11848;DHT22;5983;49.966;8.052;2023-10-08T11:58:21;36.20;44.30
11848;DHT22;5983;49.966;8.052;2023-10-08T12:01:02;34.80;46.70
11848;DHT22;5983;49.966;8.052;2023-10-08T12:03:30;33.70;48.20
11848;DHT22;5983;49.966;8.052;2023-10-08T12:05:58;33.00;50.20
11848;DHT22;5983;49.966;8.052;2023-10-08T12:08:25;32.60;50.70
11848;DHT22;5983;49.966;8.052;2023-10-08T12:10:53;32.30;50.50
11848;DHT22;5983;49.966;8.052;2023-10-08T12:13:20;32.10;51.30
11848;DHT22;5983;49.966;8.052;2023-10-08T12:15:50;32.10;52.00
11848;DHT22;5983;49.966;8.052;2023-10-08T12:18:18;32.10;53.00
11848;DHT22;5983;49.966;8.052;2023-10-08T12:20:50;32.20;54.20
11848;DHT22;5983;49.966;8.052;2023-10-08T12:23:20;32.30;53.00
11848;DHT22;5983;49.966;8.052;2023-10-08T12:25:50;32.60;52.40
11848;DHT22;5983;49.966;8.052;2023-10-08T12:28:18;33.10;52.00
11848;DHT22;5983;49.966;8.052;2023-10-08T12:30:45;34.10;51.50
11848;DHT22;5983;49.966;8.052;2023-10-08T12:33:12;35.10;49.30
11848;DHT22;5983;49.966;8.052;2023-10-08T12:35:41;36.50;47.30
11848;DHT22;5983;49.966;8.052;2023-10-08T12:38:09;38.10;45.50
11848;DHT22;5983;49.966;8.052;2023-10-08T12:40:39;39.50;42.70
11848;DHT22;5983;49.966;8.052;2023-10-08T12:43:13;40.60;40.30
11848;DHT22;5983;49.966;8.052;2023-10-08T12:45:44;41.20;38.80
11848;DHT22;5983;49.966;8.052;2023-10-08T12:48:18;40.80;38.90
11848;DHT22;5983;49.966;8.052;2023-10-08T12:50:46;39.90;39.90
11848;DHT22;5983;49.966;8.052;2023-10-08T12:53:19;39.10;41.00
11848;DHT22;5983;49.966;8.052;2023-10-08T12:55:51;38.70;41.80
11848;DHT22;5983;49.966;8.052;2023-10-08T12:58:20;39.10;41.00
11848;DHT22;5983;49.966;8.052;2023-10-08T13:00:51;39.50;40.10
11848;DHT22;5983;49.966;8.052;2023-10-08T13:03:23;39.30;40.00
11848;DHT22;5983;49.966;8.052;2023-10-08T13:05:51;38.50;40.90
11848;DHT22;5983;49.966;8.052;2023-10-08T13:08:19;37.90;42.40
11848;DHT22;5983;49.966;8.052;2023-10-08T13:10:46;38.10;41.90
11848;DHT22;5983;49.966;8.052;2023-10-08T13:13:14;38.50;41.60
11848;DHT22;5983;49.966;8.052;2023-10-08T13:15:41;39.30;40.90
11848;DHT22;5983;49.966;8.052;2023-10-08T13:18:08;39.50;39.80
11848;DHT22;5983;49.966;8.052;2023-10-08T13:20:35;39.30;40.00
11848;DHT22;5983;49.966;8.052;2023-10-08T13:23:06;39.20;40.10
11848;DHT22;5983;49.966;8.052;2023-10-08T13:25:32;39.00;40.50
11848;DHT22;5983;49.966;8.052;2023-10-08T13:28:04;38.70;42.10
11848;DHT22;5983;49.966;8.052;2023-10-08T13:30:34;37.90;42.00
11848;DHT22;5983;49.966;8.052;2023-10-08T13:33:01;36.50;44.10
11848;DHT22;5983;49.966;8.052;2023-10-08T13:35:27;35.80;46.20
11848;DHT22;5983;49.966;8.052;2023-10-08T13:37:54;35.90;45.60
11848;DHT22;5983;49.966;8.052;2023-10-08T13:40:21;35.50;45.40
11848;DHT22;5983;49.966;8.052;2023-10-08T13:42:58;34.40;47.30
11848;DHT22;5983;49.966;8.052;2023-10-08T13:45:25;33.00;49.40
11848;DHT22;5983;49.966;8.052;2023-10-08T13:47:55;31.60;52.40
11848;DHT22;5983;49.966;8.052;2023-10-08T13:50:25;30.30;55.70
11848;DHT22;5983;49.966;8.052;2023-10-08T13:52:51;29.30;57.90
11848;DHT22;5983;49.966;8.052;2023-10-08T13:55:18;28.50;60.20
11848;DHT22;5983;49.966;8.052;2023-10-08T13:57:45;27.70;63.50
11848;DHT22;5983;49.966;8.052;2023-10-08T14:00:13;27.10;66.70
11848;DHT22;5983;49.966;8.052;2023-10-08T14:02:42;26.70;69.00
11848;DHT22;5983;49.966;8.052;2023-10-08T14:05:11;26.30;70.60
11848;DHT22;5983;49.966;8.052;2023-10-08T14:07:41;26.10;72.10
11848;DHT22;5983;49.966;8.052;2023-10-08T14:10:10;25.90;74.10
11848;DHT22;5983;49.966;8.052;2023-10-08T14:12:44;26.30;75.20
11848;DHT22;5983;49.966;8.052;2023-10-08T14:15:15;27.70;70.60
11848;DHT22;5983;49.966;8.052;2023-10-08T14:17:42;29.40;65.60
11848;DHT22;5983;49.966;8.052;2023-10-08T14:20:15;30.70;61.50
11848;DHT22;5983;49.966;8.052;2023-10-08T14:22:47;31.30;59.40
11848;DHT22;5983;49.966;8.052;2023-10-08T14:25:22;31.50;59.20
11848;DHT22;5983;49.966;8.052;2023-10-08T14:27:53;31.20;58.90
11848;DHT22;5983;49.966;8.052;2023-10-08T14:30:30;30.80;59.10
11848;DHT22;5983;49.966;8.052;2023-10-08T14:32:58;30.10;60.20
11848;DHT22;5983;49.966;8.052;2023-10-08T14:35:30;29.30;61.80
11848;DHT22;5983;49.966;8.052;2023-10-08T14:38:14;28.70;63.70
11848;DHT22;5983;49.966;8.052;2023-10-08T14:40:58;28.10;65.80
11848;DHT22;5983;49.966;8.052;2023-10-08T14:43:42;27.60;67.40
11848;DHT22;5983;49.966;8.052;2023-10-08T14:46:09;27.10;68.50
11848;DHT22;5983;49.966;8.052;2023-10-08T14:48:36;26.80;69.70
11848;DHT22;5983;49.966;8.052;2023-10-08T14:51:07;26.50;71.90
11848;DHT22;5983;49.966;8.052;2023-10-08T14:53:34;26.20;73.50
11848;DHT22;5983;49.966;8.052;2023-10-08T14:56:03;25.90;75.20
11848;DHT22;5983;49.966;8.052;2023-10-08T14:58:31;25.70;76.40
11848;DHT22;5983;49.966;8.052;2023-10-08T15:00:58;25.70;76.80
11848;DHT22;5983;49.966;8.052;2023-10-08T15:03:24;25.50;77.10
11848;DHT22;5983;49.966;8.052;2023-10-08T15:05:52;25.40;78.60
11848;DHT22;5983;49.966;8.052;2023-10-08T15:08:21;25.20;80.80
11848;DHT22;5983;49.966;8.052;2023-10-08T15:10:49;25.00;83.90
11848;DHT22;5983;49.966;8.052;2023-10-08T15:13:15;24.90;87.00
11848;DHT22;5983;49.966;8.052;2023-10-08T15:15:42;24.70;89.00
11848;DHT22;5983;49.966;8.052;2023-10-08T15:18:09;24.70;90.00
11848;DHT22;5983;49.966;8.052;2023-10-08T15:20:36;24.70;91.10
11848;DHT22;5983;49.966;8.052;2023-10-08T15:23:06;24.50;92.30
11848;DHT22;5983;49.966;8.052;2023-10-08T15:25:38;24.50;92.20
11848;DHT22;5983;49.966;8.052;2023-10-08T15:28:05;24.40;92.60
11848;DHT22;5983;49.966;8.052;2023-10-08T15:30:33;24.30;92.90
11848;DHT22;5983;49.966;8.052;2023-10-08T15:33:00;24.30;93.70
11848;DHT22;5983;49.966;8.052;2023-10-08T15:35:27;24.30;94.70
11848;DHT22;5983;49.966;8.052;2023-10-08T15:37:54;24.30;95.50
11848;DHT22;5983;49.966;8.052;2023-10-08T15:40:21;24.20;95.80
11848;DHT22;5983;49.966;8.052;2023-10-08T15:42:50;24.10;96.00
11848;DHT22;5983;49.966;8.052;2023-10-08T15:45:18;24.10;96.30
11848;DHT22;5983;49.966;8.052;2023-10-08T15:47:45;24.00;96.50
11848;DHT22;5983;49.966;8.052;2023-10-08T15:50:12;24.00;97.10
11848;DHT22;5983;49.966;8.052;2023-10-08T15:52:39;23.90;98.10
11848;DHT22;5983;49.966;8.052;2023-10-08T15:55:06;23.80;98.50
11848;DHT22;5983;49.966;8.052;2023-10-08T15:57:34;23.70;99.20
11848;DHT22;5983;49.966;8.052;2023-10-08T16:00:02;23.60;99.90
11848;DHT22;5983;49.966;8.052;2023-10-08T16:02:30;23.40;99.90
11848;DHT22;5983;49.966;8.052;2023-10-08T16:04:57;23.30;99.90
11848;DHT22;5983;49.966;8.052;2023-10-08T16:07:23;23.10;99.90
11848;DHT22;5983;49.966;8.052;2023-10-08T16:09:50;22.90;99.90
11848;DHT22;5983;49.966;8.052;2023-10-08T16:12:17;22.80;99.90
11848;DHT22;5983;49.966;8.052;2023-10-08T16:14:44;22.70;99.90